Time;durP1;ratioP1;P1;durP2;ratioP2;P2;SDS_P1;SDS_P2;PMS_P1;PMS_P2;Temp;Humidity;BMP_temperature;BMP_pressure;BME280_temperature;BME280_humidity;BME280_pressure;Samples;Min_cycle;Max_cycle;Signal;HPM_P1;HPM_P2
2021/05/20 00:02:08;;;;;;;3.17;1.42;;;;;;;12.92;78.31;99151.34;4118512;34;33201;-93
2021/05/20 00:04:46;;;;;;;1.12;0.80;;;;;;;13.15;77.56;99150.78;4102855;34;32834;-96
2021/05/20 00:07:26;;;;;;;1.48;0.98;;;;;;;13.01;77.89;99150.03;4100777;34;33173;-96
2021/05/20 00:10:46;;;;;;;4.60;1.10;;;;;;;13.14;77.29;99149.13;4118427;34;33566;-96
2021/05/20 00:13:57;;;;;;;1.80;1.10;;;;;;;12.79;78.91;99151.44;4121425;34;32220;-94
2021/05/20 00:16:37;;;;;;;;;;;;;;;13.03;77.90;99147.13;4112855;34;34583;-93
2021/05/20 00:19:35;;;;;;;6.78;0.88;;;;;;;12.89;78.71;99152.63;4139650;34;34809;-93
2021/05/20 00:22:16;;;;;;;1.48;1.15;;;;;;;12.91;78.64;99148.88;4135514;34;34402;-96
2021/05/20 00:25:01;;;;;;;2.50;1.20;;;;;;;13.02;78.62;99153.59;4133179;34;31902;-93
2021/05/20 00:27:41;;;;;;;3.20;1.00;;;;;;;12.88;78.44;99150.13;4126707;34;33098;-94
2021/05/20 00:30:29;;;;;;;1.65;1.30;;;;;;;12.60;79.49;99158.59;4142937;34;34705;-94
2021/05/20 00:33:03;;;;;;;1.67;1.35;;;;;;;11.98;81.83;99150.84;4144612;34;36603;-96
2021/05/20 00:36:17;;;;;;;2.90;1.27;;;;;;;11.81;82.70;99143.12;4110441;34;33190;-93
2021/05/20 00:38:58;;;;;;;4.37;1.25;;;;;;;11.75;83.28;99149.41;4086153;35;33752;-96
2021/05/20 00:41:57;;;;;;;2.78;1.50;;;;;;;11.62;84.16;99138.56;4096544;35;36703;-94
2021/05/20 00:44:51;;;;;;;5.30;1.25;;;;;;;11.88;83.09;99145.81;4098662;35;34265;-96
2021/05/20 00:47:39;;;;;;;3.22;1.35;;;;;;;12.28;81.98;99151.19;4099866;35;34522;-94
2021/05/20 00:50:21;;;;;;;1.92;1.10;;;;;;;12.13;81.78;99146.03;4088919;35;35142;-93
2021/05/20 00:52:57;;;;;;;3.20;1.17;;;;;;;12.36;81.13;99152.84;4088104;35;32716;-94
2021/05/20 00:56:22;;;;;;;2.15;1.40;;;;;;;12.47;80.90;99144.06;3966544;35;34612;-94
2021/05/20 00:58:55;;;;;;;1.70;1.40;;;;;;;12.51;81.10;99152.56;4085575;35;34726;-96
2021/05/20 01:01:46;;;;;;;3.87;1.00;;;;;;;12.28;81.85;99148.50;4097406;35;32439;-94
2021/05/20 01:04:32;;;;;;;1.52;0.95;;;;;;;12.81;79.61;99152.03;4111676;34;33083;-96
2021/05/20 01:07:18;;;;;;;1.65;1.00;;;;;;;12.58;79.59;99150.69;4131848;34;34644;-96
2021/05/20 01:10:04;;;;;;;1.92;1.23;;;;;;;12.50;80.80;99157.19;4164581;34;36109;-94
2021/05/20 01:12:52;;;;;;;2.78;1.10;;;;;;;12.56;80.34;99146.50;4155967;34;32100;-93
2021/05/20 01:15:34;;;;;;;;;;;;;;;12.66;79.78;99153.13;4166638;34;32650;-96
2021/05/20 01:18:49;;;;;;;5.20;1.23;;;;;;;12.41;80.91;99155.75;4151508;29;35661;-93
2021/05/20 01:21:23;;;;;;;3.00;1.40;;;;;;;12.27;81.67;99165.78;4167104;34;33821;-96
2021/05/20 01:24:20;;;;;;;2.75;1.37;;;;;;;12.69;79.71;99165.44;4148322;34;34906;-93
2021/05/20 01:27:01;;;;;;;4.53;1.23;;;;;;;12.34;81.08;99163.06;4140493;34;34329;-96
2021/05/20 01:29:48;;;;;;;2.08;1.30;;;;;;;12.63;79.75;99163.59;4150243;34;34422;-96
2021/05/20 01:32:23;;;;;;;2.10;1.10;;;;;;;12.37;80.54;99162.63;4161619;34;32266;-96
2021/05/20 01:35:15;;;;;;;1.55;1.30;;;;;;;12.57;80.14;99165.28;4155915;34;34725;-96
2021/05/20 01:41:11;;;;;;;1.87;1.37;;;;;;;12.37;80.86;99157.22;4142972;34;32720;-95
2021/05/20 01:44:01;;;;;;;2.08;1.33;;;;;;;12.50;79.82;99154.47;4178452;34;33467;-95
2021/05/20 01:46:53;;;;;;;3.35;2.20;;;;;;;12.12;81.70;99162.50;4165575;34;32534;-96
2021/05/20 01:49:30;;;;;;;4.53;2.62;;;;;;;12.19;81.08;99150.59;4178483;34;33347;-95
2021/05/20 01:52:36;;;;;;;3.53;2.60;;;;;;;11.66;82.68;99142.50;4163396;34;35004;-92
2021/05/20 01:55:12;;;;;;;3.97;2.60;;;;;;;11.90;82.20;99148.31;4164735;34;33649;-96
2021/05/20 01:58:28;;;;;;;3.92;2.35;;;;;;;11.97;82.26;99150.00;4130581;28;37469;-92
2021/05/20 02:01:02;;;;;;;3.60;2.60;;;;;;;12.15;81.01;99160.19;4166960;34;34485;-92
2021/05/20 02:03:36;;;;;;;3.62;2.10;;;;;;;11.73;82.49;99153.34;4167351;34;33915;-95
2021/05/20 02:06:23;;;;;;;2.90;2.60;;;;;;;12.30;80.21;99154.50;4170251;34;31969;-92
2021/05/20 02:09:05;;;;;;;5.78;2.47;;;;;;;11.96;80.91;99159.19;4175911;34;34095;-92
2021/05/20 02:11:38;;;;;;;4.57;3.10;;;;;;;12.01;81.12;99158.56;4159827;34;34456;-96
2021/05/20 02:14:59;;;;;;;4.53;2.58;;;;;;;12.18;80.06;99162.50;4022071;34;33661;-94
2021/05/20 02:17:36;;;;;;;4.37;2.97;;;;;;;12.08;80.22;99178.34;4182791;34;33667;-95
2021/05/20 02:20:25;;;;;;;3.58;2.83;;;;;;;12.15;80.38;99178.31;4177244;34;35135;-96
2021/05/20 02:22:58;;;;;;;3.95;2.78;;;;;;;11.93;81.29;99175.88;4168993;34;34720;-93
2021/05/20 02:25:34;;;;;;;3.85;2.60;;;;;;;11.74;81.80;99168.56;4176057;34;34584;-95
2021/05/20 02:28:08;;;;;;;3.78;2.50;;;;;;;11.57;82.36;99181.66;4143866;34;33827;-93
2021/05/20 02:30:43;;;;;;;8.55;2.78;;;;;;;11.82;81.26;99182.69;4154711;34;35041;-94
2021/05/20 02:33:32;;;;;;;3.55;2.92;;;;;;;11.69;81.98;99185.44;4181203;34;32409;-95
2021/05/20 02:39:56;;;;;;;3.28;2.90;;;;;;;11.82;81.53;99195.41;4177821;34;34317;-95
2021/05/20 02:42:45;;;;;;;2.78;2.50;;;;;;;11.74;81.45;99199.16;4181578;34;33976;-95
2021/05/20 02:45:26;;;;;;;5.18;3.25;;;;;;;12.06;79.99;99195.84;4182121;34;33114;-96
2021/05/20 02:48:16;;;;;;;3.33;2.92;;;;;;;12.12;80.28;99205.81;4131220;34;34105;-94
2021/05/20 02:50:52;;;;;;;4.12;3.10;;;;;;;12.03;79.89;99201.69;4138770;34;32540;-93
2021/05/20 02:53:43;;;;;;;3.97;3.12;;;;;;;12.19;79.14;99207.47;4175374;34;34232;-94
2021/05/20 02:56:29;;;;;;;3.55;3.03;;;;;;;12.29;78.84;99211.62;4178480;34;34379;-92
2021/05/20 02:59:17;;;;;;;3.85;3.05;;;;;;;12.40;78.74;99219.12;4177412;34;32882;-96
2021/05/20 03:02:06;;;;;;;5.75;3.47;;;;;;;12.23;79.45;99217.88;4156553;34;35940;-95
2021/05/20 03:04:54;;;;;;;3.47;2.97;;;;;;;11.86;81.35;99217.50;4161378;34;34421;-95
2021/05/20 03:07:28;;;;;;;6.30;3.28;;;;;;;11.96;80.98;99218.78;4172756;34;34376;-95
2021/05/20 03:10:19;;;;;;;4.73;3.20;;;;;;;12.02;80.87;99225.22;4141129;34;32833;-94
2021/05/20 03:12:52;;;;;;;3.40;3.00;;;;;;;12.35;78.88;99221.66;4160411;34;32576;-94
2021/05/20 03:15:41;;;;;;;3.33;2.75;;;;;;;12.31;79.73;99229.34;4154585;34;33921;-92
2021/05/20 03:18:20;;;;;;;3.22;2.65;;;;;;;12.60;78.16;99223.66;4162615;34;34387;-93
2021/05/20 03:20:54;;;;;;;4.50;3.22;;;;;;;12.32;79.63;99232.88;4150552;34;33116;-93
2021/05/20 03:23:28;;;;;;;3.83;3.05;;;;;;;12.43;79.03;99234.13;4153862;34;33922;-93
2021/05/20 03:26:20;;;;;;;5.03;3.08;;;;;;;12.08;80.08;99237.94;4156850;34;33031;-93
2021/05/20 03:28:53;;;;;;;;;;;;;;;12.10;80.13;99229.59;4176095;34;35080;-95
2021/05/20 03:31:44;;;;;;;5.43;2.90;;;;;;;12.42;79.35;99233.28;4152451;34;35663;-96
2021/05/20 03:34:18;;;;;;;5.18;3.28;;;;;;;12.29;79.48;99239.56;4173796;34;34602;-95
2021/05/20 03:40:24;;;;;;;4.90;4.35;;;;;;;12.21;80.12;99231.66;4163992;34;33739;-95
2021/05/20 03:43:35;;;;;;;6.72;4.65;;;;;;;12.42;79.20;99230.56;4192686;28;36013;-96
2021/05/20 03:46:09;;;;;;;5.60;4.78;;;;;;;11.69;81.90;99236.88;4170762;34;32055;-95
2021/05/20 03:49:31;;;;;;;8.23;5.53;;;;;;;11.82;82.29;99242.25;4036129;34;34502;-96
2021/05/20 03:52:06;;;;;;;6.65;5.30;;;;;;;11.72;83.05;99249.13;4139711;34;34330;-96
2021/05/20 03:54:52;;;;;;;6.87;6.07;;;;;;;11.67;83.23;99252.47;4169232;34;20172;-96
2021/05/20 03:57:28;;;;;;;7.43;6.00;;;;;;;11.49;84.03;99253.06;4160638;34;32382;-95
2021/05/20 04:00:05;;;;;;;7.85;5.90;;;;;;;11.53;84.02;99256.19;4190330;34;34568;-94
2021/05/20 04:06:19;;;;;;;9.63;6.60;;;;;;;11.63;83.51;99262.88;4144987;34;36599;-94
2021/05/20 04:08:56;;;;;;;9.15;7.55;;;;;;;11.12;85.50;99277.72;4170714;34;32455;-94
2021/05/20 04:11:30;;;;;;;9.75;8.20;;;;;;;11.77;83.58;99269.13;4175921;34;32792;-93
2021/05/20 04:14:08;;;;;;;13.07;9.05;;;;;;;11.91;82.49;99269.16;4179868;34;33803;-94
2021/05/20 04:16:41;;;;;;;12.68;9.68;;;;;;;11.97;82.32;99263.75;4174889;34;32430;-94
2021/05/20 04:19:17;;;;;;;14.75;9.27;;;;;;;11.61;84.12;99272.22;4177495;34;32721;-95
2021/05/20 04:21:50;;;;;;;10.95;9.55;;;;;;;11.74;83.08;99269.53;4181001;34;35291;-94
2021/05/20 04:24:31;;;;;;;15.27;11.00;;;;;;;11.75;83.10;99270.37;4172944;34;33588;-94
2021/05/20 04:27:05;;;;;;;14.45;11.15;;;;;;;11.46;84.36;99278.66;4171520;34;32374;-93
2021/05/20 04:29:45;;;;;;;13.25;11.25;;;;;;;11.47;84.34;99279.50;4168248;34;35187;-94
2021/05/20 04:32:19;;;;;;;14.20;11.73;;;;;;;11.64;83.77;99280.75;4172108;34;34421;-93
2021/05/20 04:34:55;;;;;;;19.95;13.43;;;;;;;11.43;85.03;99284.47;4170241;34;35292;-94
2021/05/20 04:37:29;;;;;;;15.38;12.23;;;;;;;11.72;83.81;99287.03;4170104;34;32658;-93
2021/05/20 04:40:18;;;;;;;14.55;11.98;;;;;;;11.84;83.17;99299.75;4174304;34;34040;-94
2021/05/20 04:43:04;;;;;;;17.75;13.13;;;;;;;11.75;83.29;99303.72;4178962;34;34396;-94
2021/05/20 04:45:50;;;;;;;14.93;12.95;;;;;;;11.64;83.43;99307.84;4177376;34;33281;-94
2021/05/20 04:48:25;;;;;;;16.23;14.45;;;;;;;11.93;82.33;99311.25;4172099;34;32745;-95
2021/05/20 04:51:11;;;;;;;19.48;14.32;;;;;;;11.95;82.45;99319.19;4152207;34;34585;-94
2021/05/20 04:53:56;;;;;;;18.52;14.75;;;;;;;12.51;80.04;99323.34;4176688;34;33017;-94
2021/05/20 04:56:42;;;;;;;20.70;14.75;;;;;;;12.39;80.16;99325.84;4153134;34;32942;-94
2021/05/20 04:59:26;;;;;;;19.60;14.48;;;;;;;12.59;79.51;99333.13;4172243;34;32710;-95
2021/05/20 05:02:19;;;;;;;20.57;15.33;;;;;;;12.59;79.71;99336.69;4153953;34;34128;-95
2021/05/20 05:04:54;;;;;;;17.15;14.15;;;;;;;12.56;80.13;99341.69;4145313;34;32886;-95
2021/05/20 05:07:42;;;;;;;19.10;14.27;;;;;;;12.70;79.43;99343.34;4164440;34;32917;-96
2021/05/20 05:10:15;;;;;;;19.58;15.48;;;;;;;12.21;81.47;99342.72;4175025;34;32992;-95
2021/05/20 05:13:08;;;;;;;21.33;15.73;;;;;;;12.51;80.51;99351.28;4163123;34;32598;-95
2021/05/20 05:19:30;;;;;;;19.62;13.88;;;;;;;12.47;80.36;99360.87;4620397;28;20123;-96
2021/05/20 05:22:18;;;;;;;17.05;14.18;;;;;;;12.34;80.81;99358.16;4370970;28;33639;-96
2021/05/20 05:25:09;;;;;;;16.30;14.48;;;;;;;12.37;80.68;99355.03;4173833;34;30789;-96
2021/05/20 05:28:05;;;;;;;18.20;15.30;;;;;;;12.31;80.46;99358.59;4186359;34;32275;-96
2021/05/20 05:30:57;;;;;;;18.30;15.85;;;;;;;12.50;80.46;99352.31;4186317;34;37017;-96
2021/05/20 05:34:03;;;;;;;18.08;15.15;;;;;;;12.56;79.26;99347.94;4186155;34;32459;-96
2021/05/20 05:37:10;;;;;;;17.65;14.43;;;;;;;12.58;79.42;99353.16;4174264;34;33255;-96
2021/05/20 05:40:27;;;;;;;19.67;15.10;;;;;;;12.38;79.99;99356.72;4173542;34;33163;-96
2021/05/20 05:43:36;;;;;;;20.10;16.40;;;;;;;12.11;80.91;99354.00;4154970;34;34359;-96
2021/05/20 05:46:23;;;;;;;22.65;15.85;;;;;;;12.03;81.23;99356.88;4172494;34;33176;-95
2021/05/20 05:52:28;;;;;;;24.80;15.50;;;;;;;12.05;81.33;99365.66;4173624;34;32944;-96
2021/05/20 05:55:15;;;;;;;21.12;17.55;;;;;;;12.03;81.50;99362.31;4165273;34;34226;-96
2021/05/20 05:58:16;;;;;;;21.80;17.15;;;;;;;11.65;82.53;99362.81;4176550;34;32419;-96
2021/05/20 06:01:03;;;;;;;21.15;17.12;;;;;;;11.87;82.35;99365.38;4160367;34;32253;-95
2021/05/20 06:03:54;;;;;;;23.23;17.30;;;;;;;12.13;81.42;99365.44;4167127;34;32450;-95
2021/05/20 06:06:31;;;;;;;22.55;17.30;;;;;;;12.03;81.73;99367.72;4161629;34;33630;-95
2021/05/20 06:09:28;;;;;;;20.70;16.50;;;;;;;11.94;82.08;99361.66;4175054;34;32875;-96
2021/05/20 06:12:18;;;;;;;19.35;16.23;;;;;;;11.98;81.91;99370.22;4138771;34;32702;-96
2021/05/20 06:15:11;;;;;;;20.33;16.70;;;;;;;11.71;83.05;99374.72;4150351;34;33933;-96
2021/05/20 06:18:02;;;;;;;20.60;16.55;;;;;;;11.67;83.69;99376.97;4158010;34;34581;-95
2021/05/20 06:21:03;;;;;;;22.37;17.20;;;;;;;11.68;83.22;99367.81;4171054;34;33954;-96
2021/05/20 06:23:47;;;;;;;22.13;16.73;;;;;;;11.63;83.46;99381.13;4167112;34;33397;-96
2021/05/20 06:27:25;;;;;;;;;;;;;;;;;;;;;
2021/05/20 06:30:41;;;;;;;16.73;14.65;;;;;;;11.86;82.13;99379.97;4154193;34;34126;-96
2021/05/20 06:34:10;;;;;;;16.87;14.77;;;;;;;12.49;80.24;99380.47;4148490;34;33919;-96
2021/05/20 06:37:11;;;;;;;22.42;15.20;;;;;;;12.24;79.88;99382.13;4151360;34;32572;-96
2021/05/20 06:39:52;;;;;;;19.00;15.30;;;;;;;12.39;80.65;99380.03;4154291;34;32800;-96
2021/05/20 06:42:54;;;;;;;19.10;14.95;;;;;;;12.44;80.01;99382.13;4153706;34;32614;-96
2021/05/20 06:46:05;;;;;;;17.67;14.50;;;;;;;12.53;79.80;99370.88;4143682;34;33769;-96
2021/05/20 06:49:03;;;;;;;17.87;14.82;;;;;;;12.18;80.91;99367.53;4156240;34;32065;-96
2021/05/20 06:52:10;;;;;;;15.75;12.75;;;;;;;12.05;81.54;99365.66;4167443;34;33163;-96
2021/05/20 06:55:30;;;;;;;17.42;12.95;;;;;;;12.05;81.33;99373.78;4178580;34;34634;-96
2021/05/20 07:02:44;;;;;;;16.87;13.77;;;;;;;12.24;80.79;99377.53;4141843;34;32942;-96
2021/05/20 07:06:00;;;;;;;16.70;13.90;;;;;;;12.14;81.31;99377.97;4139306;34;34329;-96
2021/05/20 07:09:37;;;;;;;19.50;14.95;;;;;;;12.28;80.70;99386.09;4087212;35;20156;-96
2021/05/20 07:12:29;;;;;;;17.42;14.65;;;;;;;11.79;82.76;99391.59;4079418;35;32856;-96
2021/05/20 07:15:35;;;;;;;24.20;15.65;;;;;;;12.46;80.38;99399.03;4071854;35;34112;-96
2021/05/20 07:18:29;;;;;;;18.42;14.43;;;;;;;12.63;79.71;99404.88;4085765;35;33139;-96
2021/05/20 07:22:03;;;;;;;23.53;16.50;;;;;;;12.28;81.02;99410.50;4075487;35;35438;-96
2021/05/20 07:25:06;;;;;;;17.67;15.77;;;;;;;12.09;82.16;99412.13;4093663;35;32645;-96
2021/05/20 07:28:10;;;;;;;18.75;15.30;;;;;;;12.35;80.91;99414.03;4105336;34;34262;-96
2021/05/20 07:32:01;;;;;;;17.77;15.20;;;;;;;12.36;80.81;99421.13;1947927;29;20381;-93
2021/05/20 07:35:14;;;;;;;17.75;15.55;;;;;;;12.23;81.92;99424.66;4118397;34;32270;-96
2021/05/20 07:37:48;;;;;;;20.70;15.68;;;;;;;12.48;81.22;99422.16;4119160;34;33698;-95
2021/05/20 07:40:43;;;;;;;18.35;14.87;;;;;;;12.81;80.32;99420.50;4117620;34;33425;-95
2021/05/20 07:43:18;;;;;;;20.83;14.82;;;;;;;12.74;80.63;99431.38;4118677;34;32764;-95
2021/05/20 07:46:00;;;;;;;17.17;13.77;;;;;;;12.53;80.87;99427.81;4148047;34;33198;-95
2021/05/20 07:48:34;;;;;;;17.27;14.45;;;;;;;11.82;82.79;99434.50;4138936;34;34214;-96
2021/05/20 07:51:20;;;;;;;17.30;13.88;;;;;;;12.30;82.75;99438.19;4117887;34;32036;-96
2021/05/20 07:53:54;;;;;;;23.67;14.48;;;;;;;12.48;81.82;99437.59;4122033;34;34426;-95
2021/05/20 07:56:43;;;;;;;20.70;15.43;;;;;;;12.53;81.36;99445.97;4117380;34;32587;-94
2021/05/20 07:59:16;;;;;;;18.80;14.70;;;;;;;12.52;81.82;99434.25;4137809;34;32118;-96
2021/05/20 08:05:00;;;;;;;17.05;14.68;;;;;;;12.90;80.66;99451.78;4129404;34;33268;-94
2021/05/20 08:10:55;;;;;;;25.65;14.63;;;;;;;13.17;79.68;99457.19;4134477;34;34319;-95
2021/05/20 08:13:31;;;;;;;18.95;14.65;;;;;;;13.33;79.30;99466.75;4100504;34;31887;-95
2021/05/20 08:16:17;;;;;;;17.92;14.75;;;;;;;13.22;80.22;99479.09;4155664;34;34546;-95
2021/05/20 08:18:51;;;;;;;17.95;14.87;;;;;;;13.74;78.97;99473.75;4126229;34;32846;-96
2021/05/20 08:21:39;;;;;;;19.75;15.40;;;;;;;13.87;79.06;99481.84;4116280;34;33226;-95
2021/05/20 08:24:29;;;;;;;17.23;13.20;;;;;;;13.91;78.36;99485.00;4141943;34;32254;-96
2021/05/20 08:27:17;;;;;;;17.77;14.20;;;;;;;14.20;77.90;99478.16;4173236;34;34834;-95
2021/05/20 08:29:51;;;;;;;19.67;15.60;;;;;;;13.88;78.38;99475.37;4167928;34;33837;-94
2021/05/20 08:32:39;;;;;;;16.73;14.02;;;;;;;14.53;77.55;99490.69;4173511;34;32601;-95
2021/05/20 08:35:12;;;;;;;17.80;12.68;;;;;;;14.77;75.92;99493.72;4186147;34;33095;-96
2021/05/20 08:38:03;;;;;;;13.70;11.90;;;;;;;15.05;75.62;99489.72;4152979;34;32606;-96
2021/05/20 08:40:57;;;;;;;19.73;13.40;;;;;;;14.79;74.00;99491.59;4154359;34;32631;-96
2021/05/20 08:44:14;;;;;;;14.05;12.37;;;;;;;15.06;74.94;99496.81;4161740;34;35047;-96
2021/05/20 08:47:13;;;;;;;14.73;12.50;;;;;;;15.07;73.13;99499.31;4161572;34;32792;-96
2021/05/20 08:50:35;;;;;;;16.25;12.00;;;;;;;15.20;73.10;99492.94;4156047;34;20099;-96
2021/05/20 08:53:53;;;;;;;;;;;;;;;;;;;;;
2021/05/20 08:57:55;;;;;;;;;;;;;;;;;;;;;
2021/05/20 09:09:27;;;;;;;14.85;11.25;;;;;;;15.15;74.05;99514.56;4238361;28;20128;-96
2021/05/20 09:12:31;;;;;;;15.43;11.02;;;;;;;15.03;73.12;99508.16;4176075;34;33258;-93
2021/05/20 09:15:21;;;;;;;12.50;10.23;;;;;;;15.19;73.79;99504.87;4172627;34;32223;-96
2021/05/20 09:18:18;;;;;;;14.70;11.10;;;;;;;15.02;73.50;99509.22;4193664;34;32848;-96
2021/05/20 09:28:38;;;;;;;15.38;12.15;;;;;;;14.81;73.97;99506.66;4335222;29;20102;-91
2021/05/20 09:31:14;;;;;;;;;;;;;;;15.67;73.54;99498.75;4196707;34;33990;-91
2021/05/20 09:33:54;;;;;;;13.15;10.63;;;;;;;15.49;73.94;99518.63;4181697;34;35453;-93
2021/05/20 09:36:47;;;;;;;16.15;11.10;;;;;;;15.80;71.18;99503.22;4184064;34;32729;-93
2021/05/20 09:40:01;;;;;;;15.02;12.07;;;;;;;15.48;72.68;99510.69;4158142;34;20120;-92
2021/05/20 09:42:38;;;;;;;17.62;13.55;;;;;;;15.22;73.07;99507.13;4141560;34;33386;-93
2021/05/20 09:45:15;;;;;;;14.13;12.65;;;;;;;15.75;74.08;99504.94;4156937;34;33030;-91
2021/05/20 09:47:49;;;;;;;17.67;13.55;;;;;;;15.38;73.50;99508.47;4146296;34;33255;-92
2021/05/20 09:50:26;;;;;;;14.27;12.77;;;;;;;16.31;72.67;99495.66;4158220;34;33219;-91
2021/05/20 09:53:13;;;;;;;14.20;12.35;;;;;;;16.32;70.64;99494.59;4146162;34;33327;-93
2021/05/20 09:56:09;;;;;;;14.80;12.32;;;;;;;16.76;69.40;99489.72;4158413;34;33263;-91
2021/05/20 09:58:53;;;;;;;15.05;11.95;;;;;;;16.58;69.47;99492.53;4154915;34;33220;-92
2021/05/20 10:16:02;;;;;;;13.65;10.30;;;;;;;16.52;68.10;99501.66;4530350;28;20079;-96
2021/05/20 10:19:11;;;;;;;16.55;11.50;;;;;;;16.95;67.27;99500.63;4231867;28;33503;-93
2021/05/20 10:21:55;;;;;;;12.45;10.93;;;;;;;16.53;68.13;99500.59;4179070;34;35679;-96
2021/05/20 10:25:29;;;;;;;12.95;11.43;;;;;;;17.14;66.84;99500.50;4167316;34;33916;-96
2021/05/20 10:29:08;;;;;;;11.57;10.38;;;;;;;17.27;65.52;99497.53;4152920;34;32546;-93
2021/05/20 10:32:25;;;;;;;12.95;9.40;;;;;;;16.89;64.34;99487.91;4282101;28;33201;31
2021/05/20 10:36:01;;;;;;;11.27;8.82;;;;;;;17.14;65.12;99484.97;4151650;34;20304;-95
2021/05/20 10:39:26;;;;;;;9.70;8.68;;;;;;;16.84;62.96;99493.19;4131241;34;33723;-96
2021/05/20 10:43:19;;;;;;;11.02;8.30;;;;;;;17.21;65.06;99484.84;4293914;29;20129;-93
2021/05/20 10:46:13;;;;;;;11.63;7.47;;;;;;;17.25;63.87;99491.50;4134138;34;34214;-94
2021/05/20 10:49:02;;;;;;;13.70;8.05;;;;;;;16.94;63.37;99490.75;4329378;28;34390;-95
2021/05/20 10:52:22;;;;;;;8.98;7.62;;;;;;;17.17;63.12;99486.38;4357641;29;32712;31
2021/05/20 10:55:05;;;;;;;9.02;6.90;;;;;;;17.27;61.37;99492.09;4222678;29;32741;-93
2021/05/20 11:01:58;;;;;;;14.70;6.57;;;;;;;17.70;60.78;99488.13;4614727;29;20116;-95
2021/05/20 11:04:53;;;;;;;10.55;5.60;;;;;;;18.02;60.12;99495.91;4270652;29;32758;31
2021/05/20 11:11:59;;;;;;;7.45;5.40;;;;;;;19.14;55.29;99484.53;4350953;29;33050;31
2021/05/20 11:16:01;;;;;;;11.75;5.40;;;;;;;19.69;54.87;99486.41;3649032;29;20136;-96
2021/05/20 11:22:54;;;;;;;7.40;4.20;;;;;;;20.15;53.08;99477.13;4152708;29;20422;-91
2021/05/20 11:40:56;;;;;;;4.43;4.03;;;;;;;19.06;51.98;99469.34;4527904;29;20145;-96
2021/05/20 11:44:52;;;;;;;5.37;3.80;;;;;;;19.54;52.87;99476.06;4363639;28;20126;-95
2021/05/20 11:48:11;;;;;;;3.60;3.30;;;;;;;19.62;50.29;99474.00;4305384;29;35131;31
2021/05/20 11:55:12;;;;;;;9.23;3.70;;;;;;;21.02;48.20;99457.91;4316719;29;36334;-90
2021/05/20 12:24:04;;;;;;;4.53;3.35;;;;;;;24.07;37.88;99445.19;4116597;34;35400;-96
2021/05/20 14:24:03;;;;;;;4.07;1.20;;;;;;;22.54;38.69;99488.38;4868394;28;20102;-96
2021/05/20 14:28:02;;;;;;;1.58;1.25;;;;;;;23.55;37.77;99490.59;4083713;35;34481;-96
2021/05/20 14:31:32;;;;;;;2.70;1.30;;;;;;;23.21;33.51;99499.47;4044298;35;34801;-95
2021/05/20 15:08:05;;;;;;;9.55;2.90;;;;;;;22.66;32.35;99508.22;3809894;28;20074;-94
2021/05/20 15:11:36;;;;;;;3.75;1.50;;;;;;;22.85;35.08;99515.97;4320898;28;34565;31
2021/05/20 15:18:09;;;;;;;4.00;1.33;;;;;;;23.06;33.08;99517.62;4157473;34;33615;-96
2021/05/20 15:21:54;;;;;;;;;;;;;;;;;;;;;
2021/05/20 15:25:01;;;;;;;2.80;1.20;;;;;;;22.19;31.96;99507.25;4140900;34;33607;-96
2021/05/20 15:28:12;;;;;;;2.65;1.48;;;;;;;23.15;34.52;99511.59;4186273;28;32407;-95
2021/05/20 15:31:27;;;;;;;1.73;0.90;;;;;;;23.56;32.50;99511.53;4109089;34;33766;-93
2021/05/20 15:34:25;;;;;;;2.05;0.85;;;;;;;23.86;30.94;99507.88;4163682;29;34735;-95
2021/05/20 15:37:49;;;;;;;3.20;0.90;;;;;;;24.63;31.50;99503.97;4088373;34;34011;-96
2021/05/20 15:41:27;;;;;;;1.85;1.05;;;;;;;24.87;30.55;99515.13;4097189;35;34055;-96
2021/05/20 15:45:39;;;;;;;;;;;;;;;;;;;;;
2021/05/20 15:53:27;;;;;;;3.20;1.20;;;;;;;25.82;28.98;99517.56;4162541;34;35577;-96
2021/05/20 15:56:51;;;;;;;1.42;1.10;;;;;;;25.76;28.71;99525.09;4168271;34;33961;-95
2021/05/20 16:00:32;;;;;;;2.85;0.95;;;;;;;25.31;30.19;99521.69;4178054;34;34495;-96
2021/05/20 16:04:09;;;;;;;3.47;0.90;;;;;;;25.36;29.20;99521.66;4196525;28;20192;-96
2021/05/20 16:15:06;;;;;;;2.97;1.20;;;;;;;22.76;34.55;99534.16;4103038;29;20102;-93
2021/05/20 16:18:02;;;;;;;4.03;1.45;;;;;;;21.74;34.71;99540.91;4097898;35;33008;-94
2021/05/20 16:20:53;;;;;;;1.20;1.05;;;;;;;21.32;39.08;99540.59;4096187;35;34539;-95
2021/05/20 16:38:03;;;;;;;5.45;1.45;;;;;;;21.97;34.68;99550.66;4051314;35;33505;-96
2021/05/20 16:41:17;;;;;;;2.87;0.70;;;;;;;21.36;35.85;99546.38;4075241;35;34359;-96
2021/05/20 16:45:00;;;;;;;2.92;0.88;;;;;;;20.80;39.10;99557.72;4030851;35;20152;-96
2021/05/20 16:48:25;;;;;;;2.50;0.82;;;;;;;20.46;37.40;99560.63;4026751;35;34349;-95
2021/05/20 16:52:20;;;;;;;;;;;;;;;;;;;;;
2021/05/20 16:59:17;;;;;;;4.20;0.95;;;;;;;23.43;35.15;99555.12;4064934;30;20477;-96
2021/05/20 17:02:54;;;;;;;1.42;1.10;;;;;;;23.75;32.00;99562.25;4061788;35;35527;-96
2021/05/20 17:06:04;;;;;;;1.25;0.90;;;;;;;23.88;31.32;99560.06;4061836;35;33325;-96
2021/05/20 17:09:17;;;;;;;3.12;1.17;;;;;;;23.72;32.56;99562.81;4083422;35;33605;-95
2021/05/20 17:12:40;;;;;;;1.10;0.85;;;;;;;23.27;32.41;99568.09;4107921;34;20129;-96
2021/05/20 17:15:51;;;;;;;1.05;0.95;;;;;;;23.14;32.02;99576.09;4083068;35;35935;-96
2021/05/20 17:18:58;;;;;;;4.22;0.77;;;;;;;21.44;33.76;99573.41;4075065;35;33837;-96
2021/05/20 17:22:11;;;;;;;2.67;1.00;;;;;;;21.21;35.76;99571.81;4107681;34;32752;-95
2021/05/20 17:25:18;;;;;;;4.87;1.30;;;;;;;20.87;35.64;99576.72;4152913;34;33339;-95
2021/05/20 17:28:30;;;;;;;2.00;1.10;;;;;;;20.99;36.25;99583.72;4155543;34;33036;-95
2021/05/20 17:31:22;;;;;;;1.90;1.30;;;;;;;20.47;39.10;99578.75;4154667;34;34010;-93
2021/05/20 17:34:26;;;;;;;3.33;0.98;;;;;;;20.36;37.82;99587.94;4158340;34;34808;-96
2021/05/20 17:37:38;;;;;;;1.40;0.95;;;;;;;20.14;39.95;99587.97;4175207;34;34164;-96
2021/05/20 17:41:00;;;;;;;1.65;1.00;;;;;;;19.69;41.99;99606.22;4169675;34;20128;-96
2021/05/20 17:44:21;;;;;;;3.53;0.80;;;;;;;19.40;42.84;99595.34;4197315;34;36178;-96
2021/05/20 17:47:14;;;;;;;6.18;1.20;;;;;;;19.03;46.05;99599.38;4198335;34;33761;-96
2021/05/20 17:49:58;;;;;;;2.17;1.17;;;;;;;18.52;46.47;99601.16;4168142;34;32943;-96
2021/05/20 17:53:12;;;;;;;0.98;0.88;;;;;;;18.68;45.06;99607.72;4148494;34;33534;-96
2021/05/20 17:56:20;;;;;;;2.70;1.15;;;;;;;18.26;44.20;99608.81;4165341;34;34208;-96
2021/05/20 17:59:35;;;;;;;1.17;0.77;;;;;;;18.11;47.55;99612.06;4166087;34;20096;-95
2021/05/20 18:02:37;;;;;;;1.65;1.02;;;;;;;17.85;47.53;99615.28;4134241;34;34220;-96
2021/05/20 18:05:43;;;;;;;3.00;1.25;;;;;;;17.86;46.46;99616.91;4128543;34;34086;-96
2021/05/20 18:09:07;;;;;;;3.00;1.35;;;;;;;17.23;49.89;99619.22;4340733;29;33038;-91
2021/05/20 18:14:23;;;;;;;0.90;0.80;;;;;;;16.90;50.13;99632.34;4132350;34;34281;-94
2021/05/20 18:17:11;;;;;;;8.68;1.48;;;;;;;17.01;49.54;99636.16;4116317;34;34831;-93
2021/05/20 18:26:59;;;;;;;1.45;1.17;;;;;;;16.33;51.77;99650.87;4489463;28;20098;-92
2021/05/20 18:29:48;;;;;;;8.05;1.10;;;;;;;15.75;52.97;99658.34;4234219;28;33743;-93
2021/05/20 18:32:46;;;;;;;4.05;1.20;;;;;;;15.30;52.66;99655.75;4844945;28;32994;31
2021/05/20 18:35:46;;;;;;;2.28;1.20;;;;;;;14.99;54.07;99661.00;4205563;29;34985;-94
2021/05/20 18:52:56;;;;;;;3.28;1.60;;;;;;;13.05;59.84;99695.72;4093776;35;34635;-94
2021/05/20 18:55:42;;;;;;;4.82;1.42;;;;;;;12.69;60.85;99700.44;4120845;34;34747;-93
2021/05/20 18:58:24;;;;;;;1.58;1.17;;;;;;;12.63;61.21;99700.38;4511629;29;32879;-91
2021/05/20 19:01:01;;;;;;;4.22;1.50;;;;;;;12.89;60.26;99700.50;4114734;34;33630;-92
2021/05/20 19:03:59;;;;;;;2.58;1.27;;;;;;;12.48;61.54;99706.78;4124443;34;33217;-94
2021/05/20 19:10:52;;;;;;;2.87;1.37;;;;;;;12.57;60.95;99722.88;4116502;34;32145;-92
2021/05/20 19:13:34;;;;;;;1.85;1.48;;;;;;;12.69;60.69;99737.53;4096383;34;34014;-92
2021/05/20 19:16:14;;;;;;;3.22;1.80;;;;;;;12.53;60.74;99734.13;4122016;34;34086;-93
2021/05/20 19:21:59;;;;;;;2.50;1.40;;;;;;;12.42;61.12;99744.69;4131459;34;33415;-92
2021/05/20 19:25:06;;;;;;;3.17;1.55;;;;;;;12.22;61.51;99745.41;4145912;34;33249;-94
2021/05/20 19:28:06;;;;;;;3.95;1.42;;;;;;;12.23;61.15;99749.81;4141751;34;32114;-94